Time;durP1;ratioP1;P1;durP2;ratioP2;P2;SDS_P1;SDS_P2;PMS_P1;PMS_P2;Temp;Humidity;BMP_temperature;BMP_pressure;BME280_temperature;BME280_humidity;BME280_pressure;Samples;Min_cycle;Max_cycle;Signal;HPM_P1;HPM_P2
2021/06/07 00:02:07;;;;;;;;;;;;;;;;;;5021887;28;19921;-83
2021/06/07 00:04:35;;;;;;;;;;;;;;;;;;5058475;28;19921;-82
2021/06/07 00:07:04;;;;;;;;;;;;;;;;;;5011025;28;19929;-82
2021/06/07 00:09:33;;;;;;;;;;;;;;;;;;5017420;28;19921;-81
2021/06/07 00:12:05;;;;;;;;;;;;;;;;;;5016467;28;19921;-81
2021/06/07 00:14:33;;;;;;;;;;;;;;;;;;5007824;28;19936;-83
2021/06/07 00:17:02;;;;;;;;;;;;;;;;;;5022882;28;19952;-83
2021/06/07 00:19:30;;;;;;;;;;;;;;;;;;5020770;28;19936;-82
2021/06/07 00:21:59;;;;;;;;;;;;;;;;;;5014237;28;19944;-82
2021/06/07 00:24:27;;;;;;;;;;;;;;;;;;5049012;28;19932;-81
2021/06/07 00:26:56;;;;;;;;;;;;;;;;;;5019679;28;20299;-81
2021/06/07 00:29:24;;;;;;;;;;;;;;;;;;5012507;28;19921;-81
2021/06/07 00:32:05;;;;;;;;;;;;;;;;;;5030780;28;19920;-81
2021/06/07 00:34:33;;;;;;;;;;;;;;;;;;5063086;28;19928;-81
2021/06/07 00:37:01;;;;;;;;;;;;;;;;;;5018647;28;20379;-81
2021/06/07 00:39:29;;;;;;;;;;;;;;;;;;5009906;28;19929;-81
2021/06/07 00:41:58;;;;;;;;;;;;;;;;;;5030201;28;19925;-85
2021/06/07 00:44:26;;;;;;;;;;;;;;;;;;5028474;28;19921;-82
2021/06/07 00:46:53;;;;;;;;;;;;;;;;;;5008522;28;19930;-83
2021/06/07 00:49:21;;;;;;;;;;;;;;;;;;5008659;28;19922;-83
2021/06/07 00:51:49;;;;;;;;;;;;;;;;;;5039499;28;19944;-82
2021/06/07 00:54:18;;;;;;;;;;;;;;;;;;5023706;28;19921;-84
2021/06/07 00:56:46;;;;;;;;;;;;;;;;;;5009165;28;19921;-81
2021/06/07 00:59:15;;;;;;;;;;;;;;;;;;5023793;28;19928;-82
2021/06/07 01:01:43;;;;;;;;;;;;;;;;;;5004586;28;19921;-83
2021/06/07 01:04:11;;;;;;;;;;;;;;;;;;5025338;28;19921;-82
2021/06/07 01:06:39;;;;;;;;;;;;;;;;;;5005877;28;19929;-83
2021/06/07 01:09:07;;;;;;;;;;;;;;;;;;5015496;28;19929;-84
2021/06/07 01:11:35;;;;;;;;;;;;;;;;;;5017646;28;19927;-82
2021/06/07 01:14:03;;;;;;;;;;;;;;;;;;5031718;28;19932;-81
2021/06/07 01:16:32;;;;;;;;;;;;;;;;;;5045758;28;19921;-81
2021/06/07 01:19:01;;;;;;;;;;;;;;;;;;5044609;28;19921;-81
2021/06/07 01:21:29;;;;;;;;;;;;;;;;;;5061382;28;20352;-81
2021/06/07 01:23:58;;;;;;;;;;;;;;;;;;5062875;28;20362;-86
2021/06/07 01:26:26;;;;;;;;;;;;;;;;;;5045069;28;19928;-84
2021/06/07 01:28:55;;;;;;;;;;;;;;;;;;5030317;28;19928;-82
2021/06/07 01:31:22;;;;;;;;;;;;;;;;;;5041932;28;19936;-81
2021/06/07 01:33:51;;;;;;;;;;;;;;;;;;5033140;28;20306;-81
2021/06/07 01:36:19;;;;;;;;;;;;;;;;;;5039114;28;19920;-83
2021/06/07 01:38:47;;;;;;;;;;;;;;;;;;5063927;28;20305;-82
2021/06/07 01:41:17;;;;;;;;;;;;;;;;;;5048859;28;19920;-82
2021/06/07 01:43:46;;;;;;;;;;;;;;;;;;5046823;28;19943;-81
2021/06/07 01:46:13;;;;;;;;;;;;;;;;;;5041220;28;19921;-82
2021/06/07 01:48:41;;;;;;;;;;;;;;;;;;5071171;28;19925;-85
2021/06/07 01:51:09;;;;;;;;;;;;;;;;;;5045308;28;19929;-82
2021/06/07 01:53:37;;;;;;;;;;;;;;;;;;5034880;28;19929;-82
2021/06/07 01:56:06;;;;;;;;;;;;;;;;;;5051321;28;19920;-84
2021/06/07 01:58:36;;;;;;;;;;;;;;;;;;5049166;28;19936;-85
2021/06/07 02:01:04;;;;;;;;;;;;;;;;;;5049979;28;19920;-82
2021/06/07 02:03:32;;;;;;;;;;;;;;;;;;5037044;28;19928;-85
2021/06/07 02:06:01;;;;;;;;;;;;;;;;;;5034891;28;19928;-84
2021/06/07 02:08:31;;;;;;;;;;;;;;;;;;5043931;28;19975;-83
2021/06/07 02:10:59;;;;;;;;;;;;;;;;;;5061223;28;19927;-84
2021/06/07 02:13:27;;;;;;;;;;;;;;;;;;5035696;28;19921;-85
2021/06/07 02:15:57;;;;;;;;;;;;;;;;;;5029749;28;20307;-86
2021/06/07 02:18:25;;;;;;;;;;;;;;;;;;5083524;28;19928;-85
2021/06/07 02:20:53;;;;;;;;;;;;;;;;;;5044393;28;19928;-85
2021/06/07 02:23:21;;;;;;;;;;;;;;;;;;5058940;28;19921;-85
2021/06/07 02:25:51;;;;;;;;;;;;;;;;;;5040361;28;19924;-86
2021/06/07 02:28:19;;;;;;;;;;;;;;;;;;5028340;28;19928;-84
2021/06/07 02:30:47;;;;;;;;;;;;;;;;;;5048112;28;20300;-85
2021/06/07 02:33:17;;;;;;;;;;;;;;;;;;5041237;28;19928;-86
2021/06/07 02:35:45;;;;;;;;;;;;;;;;;;5074084;28;23501;-86
2021/06/07 02:38:13;;;;;;;;;;;;;;;;;;5069134;28;19921;-86
2021/06/07 02:40:42;;;;;;;;;;;;;;;;;;5060068;28;19929;-85
2021/06/07 02:43:10;;;;;;;;;;;;;;;;;;5081201;28;19927;-85
2021/06/07 02:45:39;;;;;;;;;;;;;;;;;;5058427;28;19920;-85
2021/06/07 02:48:07;;;;;;;;;;;;;;;;;;5040972;28;19921;-85
2021/06/07 02:50:37;;;;;;;;;;;;;;;;;;5045819;28;19921;-87
2021/06/07 02:53:05;;;;;;;;;;;;;;;;;;5054290;28;19928;-86
2021/06/07 02:55:34;;;;;;;;;;;;;;;;;;5034260;28;19921;-86
2021/06/07 02:58:03;;;;;;;;;;;;;;;;;;5032175;28;20375;-85
2021/06/07 03:00:32;;;;;;;;;;;;;;;;;;5023212;28;19932;-83
2021/06/07 03:03:00;;;;;;;;;;;;;;;;;;5054290;28;19921;-86
2021/06/07 03:05:30;;;;;;;;;;;;;;;;;;5037892;28;19928;-84
2021/06/07 03:07:59;;;;;;;;;;;;;;;;;;5025786;28;19921;-85
2021/06/07 03:10:27;;;;;;;;;;;;;;;;;;5037720;28;19920;-83
2021/06/07 03:12:55;;;;;;;;;;;;;;;;;;5064992;28;19979;-82
2021/06/07 03:15:24;;;;;;;;;;;;;;;;;;5028602;28;19921;-84
2021/06/07 03:17:52;;;;;;;;;;;;;;;;;;5032034;28;19925;-84
2021/06/07 03:20:21;;;;;;;;;;;;;;;;;;5027934;28;19921;-84
2021/06/07 03:22:49;;;;;;;;;;;;;;;;;;5025558;28;19921;-86
2021/06/07 03:25:18;;;;;;;;;;;;;;;;;;5038301;28;19936;-86
2021/06/07 03:27:46;;;;;;;;;;;;;;;;;;5029482;28;19928;-85
2021/06/07 03:30:15;;;;;;;;;;;;;;;;;;5032384;28;19928;-85
2021/06/07 03:32:43;;;;;;;;;;;;;;;;;;5028360;28;19921;-84
2021/06/07 03:35:12;;;;;;;;;;;;;;;;;;5045425;28;19936;-85
2021/06/07 03:37:40;;;;;;;;;;;;;;;;;;5032207;28;19939;-86
2021/06/07 03:40:09;;;;;;;;;;;;;;;;;;5067609;28;19929;-84
2021/06/07 03:42:39;;;;;;;;;;;;;;;;;;5050485;28;19928;-85
2021/06/07 03:45:08;;;;;;;;;;;;;;;;;;5031836;28;19965;-84
2021/06/07 03:47:36;;;;;;;;;;;;;;;;;;5022358;28;20374;-81
2021/06/07 03:50:05;;;;;;;;;;;;;;;;;;5039287;28;19920;-80
2021/06/07 03:52:33;;;;;;;;;;;;;;;;;;5033854;28;19925;-80
2021/06/07 03:55:01;;;;;;;;;;;;;;;;;;5028432;28;19947;-80
2021/06/07 03:57:29;;;;;;;;;;;;;;;;;;5053788;28;19929;-81
2021/06/07 03:59:58;;;;;;;;;;;;;;;;;;5025480;28;19924;-81
2021/06/07 04:02:27;;;;;;;;;;;;;;;;;;5046907;28;20375;-84
2021/06/07 04:04:55;;;;;;;;;;;;;;;;;;5029581;28;19928;-82
2021/06/07 04:07:23;;;;;;;;;;;;;;;;;;5074895;28;19921;-82
2021/06/07 04:09:52;;;;;;;;;;;;;;;;;;5068866;28;19935;-80
2021/06/07 04:12:20;;;;;;;;;;;;;;;;;;5054844;28;19925;-81
2021/06/07 04:14:48;;;;;;;;;;;;;;;;;;5043828;28;19957;-81
2021/06/07 04:17:18;;;;;;;;;;;;;;;;;;5037955;28;19921;-81
2021/06/07 04:19:46;;;;;;;;;;;;;;;;;;5034965;28;19928;-82
2021/06/07 04:22:14;;;;;;;;;;;;;;;;;;5032562;28;19921;-82
2021/06/07 04:24:45;;;;;;;;;;;;;;;;;;5043287;28;20355;-81
2021/06/07 04:27:13;;;;;;;;;;;;;;;;;;5038034;28;19929;-83
2021/06/07 04:29:41;;;;;;;;;;;;;;;;;;5057277;28;19921;-81
2021/06/07 04:32:09;;;;;;;;;;;;;;;;;;5036081;28;20291;-84
2021/06/07 04:34:50;;;;;;;;;;;;;;;;;;5070105;28;20359;-82
2021/06/07 04:37:18;;;;;;;;;;;;;;;;;;5026291;28;19929;-82
2021/06/07 04:39:46;;;;;;;;;;;;;;;;;;5038306;28;19928;-81
2021/06/07 04:42:14;;;;;;;;;;;;;;;;;;5045065;28;19931;-82
2021/06/07 04:44:41;;;;;;;;;;;;;;;;;;5059798;28;19920;-82
2021/06/07 04:47:09;;;;;;;;;;;;;;;;;;5053855;28;19929;-83
2021/06/07 04:49:37;;;;;;;;;;;;;;;;;;5074533;28;19921;-84
2021/06/07 04:52:07;;;;;;;;;;;;;;;;;;5039514;28;20020;-85
2021/06/07 04:54:35;;;;;;;;;;;;;;;;;;5024919;28;19921;-85
2021/06/07 04:57:04;;;;;;;;;;;;;;;;;;5037562;28;20667;-85
2021/06/07 04:59:31;;;;;;;;;;;;;;;;;;5051460;28;19927;-84
2021/06/07 05:02:00;;;;;;;;;;;;;;;;;;5039477;28;19921;-85
2021/06/07 05:04:27;;;;;;;;;;;;;;;;;;5053248;28;20330;-85
2021/06/07 05:06:58;;;;;;;;;;;;;;;;;;5016792;28;19921;-85
2021/06/07 05:09:27;;;;;;;;;;;;;;;;;;5056003;28;20382;-85
2021/06/07 05:11:55;;;;;;;;;;;;;;;;;;5032689;28;19930;-86
2021/06/07 05:14:23;;;;;;;;;;;;;;;;;;5029352;28;19925;-85
2021/06/07 05:16:51;;;;;;;;;;;;;;;;;;5033708;28;19928;-85
2021/06/07 05:19:19;;;;;;;;;;;;;;;;;;5035502;28;19920;-85
2021/06/07 05:21:48;;;;;;;;;;;;;;;;;;5036447;28;19921;-83
2021/06/07 05:24:15;;;;;;;;;;;;;;;;;;5038958;28;19924;-86
2021/06/07 05:26:44;;;;;;;;;;;;;;;;;;5019667;28;20405;-85
2021/06/07 05:29:12;;;;;;;;;;;;;;;;;;5040012;28;19920;-86
2021/06/07 05:31:40;;;;;;;;;;;;;;;;;;5050150;28;20429;-87
2021/06/07 05:34:08;;;;;;;;;;;;;;;;;;5032523;28;19925;-86
2021/06/07 05:36:36;;;;;;;;;;;;;;;;;;5053683;28;19927;-86
2021/06/07 05:39:04;;;;;;;;;;;;;;;;;;5039245;28;19925;-87
2021/06/07 05:41:32;;;;;;;;;;;;;;;;;;5043904;28;19937;-87
2021/06/07 05:44:02;;;;;;;;;;;;;;;;;;5058650;28;19947;-83
2021/06/07 05:46:30;;;;;;;;;;;;;;;;;;5053506;28;19936;-85
2021/06/07 05:48:57;;;;;;;;;;;;;;;;;;5022660;28;20362;-86
2021/06/07 05:51:25;;;;;;;;;;;;;;;;;;5033635;28;19936;-84
2021/06/07 05:53:53;;;;;;;;;;;;;;;;;;5025971;28;19936;-85
2021/06/07 05:56:21;;;;;;;;;;;;;;;;;;5051937;28;19920;-85
2021/06/07 05:58:49;;;;;;;;;;;;;;;;;;5058569;28;19952;-85
2021/06/07 06:01:18;;;;;;;;;;;;;;;;;;5035030;28;19952;-86
2021/06/07 06:03:46;;;;;;;;;;;;;;;;;;5029078;28;19924;-85
2021/06/07 06:06:13;;;;;;;;;;;;;;;;;;5032456;28;19920;-84
2021/06/07 06:08:41;;;;;;;;;;;;;;;;;;5017427;28;20134;-83
2021/06/07 06:11:09;;;;;;;;;;;;;;;;;;5033926;28;20480;-84
2021/06/07 06:13:54;;;;;;;;;;;;;;;;;;5033165;28;19920;-84
2021/06/07 06:16:25;;;;;;;;;;;;;;;;;;5007937;28;20275;-86
2021/06/07 06:18:53;;;;;;;;;;;;;;;;;;5003147;28;19922;-84
2021/06/07 06:21:21;;;;;;;;;;;;;;;;;;5001300;28;19921;-86
2021/06/07 06:23:48;;;;;;;;;;;;;;;;;;5024095;28;20286;-82
2021/06/07 06:26:16;;;;;;;;;;;;;;;;;;5015232;28;19921;-84
2021/06/07 06:28:44;;;;;;;;;;;;;;;;;;5033454;28;19921;-84
2021/06/07 06:31:12;;;;;;;;;;;;;;;;;;5044582;28;19942;-82
2021/06/07 06:33:41;;;;;;;;;;;;;;;;;;5025650;28;19921;-84
2021/06/07 06:36:09;;;;;;;;;;;;;;;;;;5024231;28;20300;-85
2021/06/07 06:38:37;;;;;;;;;;;;;;;;;;5028541;28;19925;-83
2021/06/07 06:41:05;;;;;;;;;;;;;;;;;;5049855;28;19946;-84
2021/06/07 06:43:33;;;;;;;;;;;;;;;;;;5066311;28;19920;-84
2021/06/07 06:46:01;;;;;;;;;;;;;;;;;;5061267;28;19920;-85
2021/06/07 06:48:31;;;;;;;;;;;;;;;;;;5028132;28;19929;-84
2021/06/07 06:51:01;;;;;;;;;;;;;;;;;;5021129;28;19932;-84
2021/06/07 06:53:29;;;;;;;;;;;;;;;;;;5023151;28;19929;-85
2021/06/07 06:55:57;;;;;;;;;;;;;;;;;;5048556;28;19921;-86
2021/06/07 06:58:24;;;;;;;;;;;;;;;;;;5018603;28;19922;-82
2021/06/07 07:00:52;;;;;;;;;;;;;;;;;;5051520;28;19921;-82
2021/06/07 07:03:20;;;;;;;;;;;;;;;;;;5054748;28;19925;-84
2021/06/07 07:05:55;;;;;;;;;;;;;;;;;;5039249;28;20310;-82
2021/06/07 07:08:29;;;;;;;;;;;;;;;;;;5021165;28;19920;-85
2021/06/07 07:10:57;;;;;;;;;;;;;;;;;;5047843;28;20405;-85
2021/06/07 07:13:25;;;;;;;;;;;;;;;;;;5073981;28;19921;-87
2021/06/07 07:15:53;;;;;;;;;;;;;;;;;;5051763;28;20298;-85
2021/06/07 07:18:21;;;;;;;;;;;;;;;;;;5056282;28;20378;-83
2021/06/07 07:20:49;;;;;;;;;;;;;;;;;;5024486;28;19929;-84
2021/06/07 07:23:17;;;;;;;;;;;;;;;;;;5024899;28;19928;-83
2021/06/07 07:25:47;;;;;;;;;;;;;;;;;;5021705;28;20391;-85
2021/06/07 07:28:15;;;;;;;;;;;;;;;;;;5067481;28;19925;-84
2021/06/07 07:30:44;;;;;;;;;;;;;;;;;;5021956;28;20049;-85
2021/06/07 07:33:23;;;;;;;;;;;;;;;;;;5035568;28;19927;-85
2021/06/07 07:35:51;;;;;;;;;;;;;;;;;;5048017;28;19921;-85
2021/06/07 07:38:19;;;;;;;;;;;;;;;;;;5063868;28;19931;-86
2021/06/07 07:40:48;;;;;;;;;;;;;;;;;;5039155;28;19924;-85
2021/06/07 07:43:16;;;;;;;;;;;;;;;;;;5035150;28;19928;-87
2021/06/07 07:45:44;;;;;;;;;;;;;;;;;;5033005;28;19966;-87
2021/06/07 07:48:12;;;;;;;;;;;;;;;;;;5034517;28;19928;-87
2021/06/07 07:50:40;;;;;;;;;;;;;;;;;;5026175;28;19920;-87
2021/06/07 07:53:07;;;;;;;;;;;;;;;;;;5053729;28;19921;-87
2021/06/07 07:55:36;;;;;;;;;;;;;;;;;;5035318;28;20268;-87
2021/06/07 07:58:07;;;;;;;;;;;;;;;;;;5074929;28;19928;-87
2021/06/07 08:00:35;;;;;;;;;;;;;;;;;;5056643;28;19928;-86
2021/06/07 08:03:03;;;;;;;;;;;;;;;;;;5034443;28;20267;-88
2021/06/07 08:05:31;;;;;;;;;;;;;;;;;;5055054;28;19920;-86
2021/06/07 08:07:59;;;;;;;;;;;;;;;;;;5037845;28;19925;-86
2021/06/07 08:10:27;;;;;;;;;;;;;;;;;;5037171;28;19921;-86
2021/06/07 08:12:55;;;;;;;;;;;;;;;;;;5065172;28;19944;-86
2021/06/07 08:15:24;;;;;;;;;;;;;;;;;;5035916;28;20398;-86
2021/06/07 08:17:52;;;;;;;;;;;;;;;;;;5017035;28;19921;-86
2021/06/07 08:20:20;;;;;;;;;;;;;;;;;;5048059;28;20412;-84
2021/06/07 08:22:50;;;;;;;;;;;;;;;;;;5001095;28;19928;-86
2021/06/07 08:25:18;;;;;;;;;;;;;;;;;;5016535;28;20430;-86
2021/06/07 08:27:47;;;;;;;;;;;;;;;;;;5017022;28;19930;-86
2021/06/07 08:30:15;;;;;;;;;;;;;;;;;;5003098;28;19929;-88
2021/06/07 08:32:45;;;;;;;;;;;;;;;;;;5000409;28;19921;-86
2021/06/07 08:35:13;;;;;;;;;;;;;;;;;;4999852;28;20503;-86
2021/06/07 08:37:41;;;;;;;;;;;;;;;;;;5002331;28;20382;-85
2021/06/07 08:40:10;;;;;;;;;;;;;;;;;;5006030;28;19921;-86
2021/06/07 08:42:39;;;;;;;;;;;;;;;;;;5031652;28;19925;-87
2021/06/07 08:45:07;;;;;;;;;;;;;;;;;;5020639;28;19921;-87
2021/06/07 08:47:35;;;;;;;;;;;;;;;;;;5022167;28;20283;-85
2021/06/07 08:50:05;;;;;;;;;;;;;;;;;;5015353;28;19921;-86
2021/06/07 08:52:33;;;;;;;;;;;;;;;;;;5032856;28;19921;-86
2021/06/07 08:55:03;;;;;;;;;;;;;;;;;;5013604;28;19921;-86
2021/06/07 08:57:36;;;;;;;;;;;;;;;;;;5028961;28;20302;-85
2021/06/07 09:00:05;;;;;;;;;;;;;;;;;;5023811;28;19921;-85
2021/06/07 09:02:33;;;;;;;;;;;;;;;;;;5005365;28;20004;-85
2021/06/07 09:05:01;;;;;;;;;;;;;;;;;;5008473;28;19921;-86
2021/06/07 09:07:31;;;;;;;;;;;;;;;;;;5008206;28;19936;-86
2021/06/07 09:10:06;;;;;;;;;;;;;;;;;;5000700;28;19926;-86
2021/06/07 09:12:33;;;;;;;;;;;;;;;;;;5026261;28;19928;-85
2021/06/07 09:15:02;;;;;;;;;;;;;;;;;;5035965;28;19930;-85
2021/06/07 09:17:30;;;;;;;;;;;;;;;;;;5049470;28;19929;-85
2021/06/07 09:20:11;;;;;;;;;;;;;;;;;;5054966;28;19927;-87
2021/06/07 09:22:41;;;;;;;;;;;;;;;;;;5034523;28;20294;-86
2021/06/07 09:25:09;;;;;;;;;;;;;;;;;;5020436;28;19955;-86
2021/06/07 09:27:37;;;;;;;;;;;;;;;;;;5029656;28;19979;-86
2021/06/07 09:30:25;;;;;;;;;;;;;;;;;;5015677;28;19954;-84
2021/06/07 09:33:08;;;;;;;;;;;;;;;;;;5065179;28;19921;-85
2021/06/07 09:35:36;;;;;;;;;;;;;;;;;;5018349;28;19921;-84
2021/06/07 09:38:06;;;;;;;;;;;;;;;;;;5054205;28;19921;-83
2021/06/07 09:40:34;;;;;;;;;;;;;;;;;;5031634;28;19928;-84
2021/06/07 09:43:03;;;;;;;;;;;;;;;;;;5027917;28;19927;-83
2021/06/07 09:45:42;;;;;;;;;;;;;;;;;;5074507;28;19928;-83
2021/06/07 09:48:11;;;;;;;;;;;;;;;;;;5022561;28;20703;-83
2021/06/07 09:50:52;;;;;;;;;;;;;;;;;;5043098;28;19921;-83
2021/06/07 09:53:39;;;;;;;;;;;;;;;;;;5054591;28;19921;-83
2021/06/07 09:56:07;;;;;;;;;;;;;;;;;;5027739;28;20278;-81
2021/06/07 09:58:36;;;;;;;;;;;;;;;;;;5056969;28;19928;-82
2021/06/07 10:01:13;;;;;;;;;;;;;;;;;;5033126;28;19928;-82
2021/06/07 10:03:43;;;;;;;;;;;;;;;;;;5059317;28;19908;-82
2021/06/07 10:06:17;;;;;;;;;;;;;;;;;;5045082;28;19939;-82
2021/06/07 10:08:47;;;;;;;;;;;;;;;;;;5057505;28;19939;-85
2021/06/07 10:11:15;;;;;;;;;;;;;;;;;;5066118;28;19921;-84
2021/06/07 10:13:43;;;;;;;;;;;;;;;;;;5058110;28;19925;-81
2021/06/07 10:16:11;;;;;;;;;;;;;;;;;;5055130;28;19920;-82
2021/06/07 10:18:40;;;;;;;;;;;;;;;;;;5017352;28;19944;-81
2021/06/07 10:21:09;;;;;;;;;;;;;;;;;;5063829;28;19921;-82
2021/06/07 10:23:38;;;;;;;;;;;;;;;;;;5029752;28;20367;-81
2021/06/07 10:26:07;;;;;;;;;;;;;;;;;;5026584;28;19928;-81
2021/06/07 10:28:36;;;;;;;;;;;;;;;;;;5038075;28;19921;-80
2021/06/07 10:31:08;;;;;;;;;;;;;;;;;;5022927;28;19921;-80
2021/06/07 10:33:36;;;;;;;;;;;;;;;;;;5043846;28;19983;-81
2021/06/07 10:36:32;;;;;;;;;;;;;;;;;;5038936;28;19928;-81
2021/06/07 10:39:19;;;;;;;;;;;;;;;;;;5044076;28;19947;-81
2021/06/07 10:41:50;;;;;;;;;;;;;;;;;;5044986;28;20177;-80
2021/06/07 10:44:33;;;;;;;;;;;;;;;;;;5042890;28;19928;-80
2021/06/07 10:47:02;;;;;;;;;;;;;;;;;;5039499;28;19925;-81
2021/06/07 10:49:37;;;;;;;;;;;;;;;;;;5041847;28;19921;-81
2021/06/07 10:52:05;;;;;;;;;;;;;;;;;;5053534;28;20551;-82
2021/06/07 10:54:33;;;;;;;;;;;;;;;;;;5026735;28;19924;-82
2021/06/07 10:57:19;;;;;;;;;;;;;;;;;;5025212;28;19921;-82
2021/06/07 10:59:49;;;;;;;;;;;;;;;;;;5036461;28;19920;-82
2021/06/07 11:02:17;;;;;;;;;;;;;;;;;;5033041;28;19928;-82
2021/06/07 11:04:45;;;;;;;;;;;;;;;;;;5076810;28;20338;-82
2021/06/07 11:07:13;;;;;;;;;;;;;;;;;;5042172;28;19928;-80
2021/06/07 11:09:56;;;;;;;;;;;;;;;;;;5005732;28;19928;-82
2021/06/07 11:12:30;;;;;;;;;;;;;;;;;;4998661;28;19922;-82
2021/06/07 11:15:13;;;;;;;;;;;;;;;;;;5024936;28;19944;-82
2021/06/07 11:17:41;;;;;;;;;;;;;;;;;;4995532;28;20762;-82
2021/06/07 11:20:11;;;;;;;;;;;;;;;;;;5035465;28;19921;-82
2021/06/07 11:22:57;;;;;;;;;;;;;;;;;;5028837;28;19929;-82
2021/06/07 11:25:25;;;;;;;;;;;;;;;;;;5031769;28;19921;-80
2021/06/07 11:27:53;;;;;;;;;;;;;;;;;;5025137;28;20302;-80
2021/06/07 11:30:22;;;;;;;;;;;;;;;;;;5010685;28;19936;-80
2021/06/07 11:32:50;;;;;;;;;;;;;;;;;;5040512;28;20387;-80
2021/06/07 11:35:37;;;;;;;;;;;;;;;;;;5010224;28;19928;-80
2021/06/07 11:38:19;;;;;;;;;;;;;;;;;;5008306;28;19921;-81
2021/06/07 11:40:47;;;;;;;;;;;;;;;;;;5048888;28;19983;-81
2021/06/07 11:43:15;;;;;;;;;;;;;;;;;;5027454;28;20422;-80
2021/06/07 11:45:44;;;;;;;;;;;;;;;;;;5030732;28;19928;-80
2021/06/07 11:48:12;;;;;;;;;;;;;;;;;;5015015;28;20437;-80
2021/06/07 11:50:41;;;;;;;;;;;;;;;;;;5025471;28;20330;-80
2021/06/07 11:53:10;;;;;;;;;;;;;;;;;;5008340;28;19925;-80
2021/06/07 11:55:38;;;;;;;;;;;;;;;;;;5007633;28;19921;-80
2021/06/07 11:58:13;;;;;;;;;;;;;;;;;;5022771;28;20355;-80
2021/06/07 12:00:43;;;;;;;;;;;;;;;;;;5023597;28;20280;-82
2021/06/07 12:03:20;;;;;;;;;;;;;;;;;;5002926;28;20398;-82
2021/06/07 12:05:57;;;;;;;;;;;;;;;;;;5057050;28;19928;-79
2021/06/07 12:08:32;;;;;;;;;;;;;;;;;;4999945;28;20270;-79
2021/06/07 12:11:12;;;;;;;;;;;;;;;;;;5033872;28;19925;-80
2021/06/07 12:13:41;;;;;;;;;;;;;;;;;;5029425;28;20337;-80
2021/06/07 12:16:11;;;;;;;;;;;;;;;;;;5057635;28;19944;-81
2021/06/07 12:18:44;;;;;;;;;;;;;;;;;;5042292;28;19928;-80
2021/06/07 12:21:16;;;;;;;;;;;;;;;;;;5018952;28;19929;-80
2021/06/07 12:23:52;;;;;;;;;;;;;;;;;;5048841;28;19920;-80
2021/06/07 12:29:24;;;;;;;;;;;;;;;;;;5029900;28;19928;-80
2021/06/07 12:32:14;;;;;;;;;;;;;;;;;;5064177;28;19929;-83
2021/06/07 12:35:00;;;;;;;;;;;;;;;;;;5052239;28;19940;-83
2021/06/07 12:37:29;;;;;;;;;;;;;;;;;;5058577;28;19927;-83
2021/06/07 12:40:09;;;;;;;;;;;;;;;;;;5026082;28;19921;-83
2021/06/07 12:42:38;;;;;;;;;;;;;;;;;;5013027;28;19928;-82
2021/06/07 12:45:06;;;;;;;;;;;;;;;;;;5008873;28;19929;-82
2021/06/07 12:47:35;;;;;;;;;;;;;;;;;;5019682;28;19921;-82
2021/06/07 12:50:09;;;;;;;;;;;;;;;;;;5018158;28;19922;-83
2021/06/07 12:52:37;;;;;;;;;;;;;;;;;;5030484;28;19921;-82
2021/06/07 12:55:06;;;;;;;;;;;;;;;;;;5019432;28;19921;-83
2021/06/07 12:57:34;;;;;;;;;;;;;;;;;;5020429;28;19929;-82
2021/06/07 13:00:17;;;;;;;;;;;;;;;;;;5019961;28;19922;-83
2021/06/07 13:02:44;;;;;;;;;;;;;;;;;;5005423;28;19928;-82
2021/06/07 13:05:13;;;;;;;;;;;;;;;;;;5058491;28;19960;-82
2021/06/07 13:07:41;;;;;;;;;;;;;;;;;;5023014;28;19928;-82
2021/06/07 13:10:19;;;;;;;;;;;;;;;;;;5038895;28;20130;-82
2021/06/07 13:12:54;;;;;;;;;;;;;;;;;;5039605;28;19928;-83
2021/06/07 13:15:22;;;;;;;;;;;;;;;;;;5060252;28;19920;-82
2021/06/07 13:18:00;;;;;;;;;;;;;;;;;;5056821;28;19929;-83
2021/06/07 13:20:30;;;;;;;;;;;;;;;;;;5026843;28;19936;-82
2021/06/07 13:22:58;;;;;;;;;;;;;;;;;;5039314;28;19929;-82
2021/06/07 13:25:29;;;;;;;;;;;;;;;;;;5035588;28;19928;-83
2021/06/07 13:28:16;;;;;;;;;;;;;;;;;;5027700;28;19925;-83
2021/06/07 13:30:43;;;;;;;;;;;;;;;;;;5055999;28;19924;-83
2021/06/07 13:33:26;;;;;;;;;;;;;;;;;;5065340;28;20283;-84
2021/06/07 13:36:03;;;;;;;;;;;;;;;;;;5033611;28;19936;-84
2021/06/07 13:38:31;;;;;;;;;;;;;;;;;;5041819;28;19921;-84
2021/06/07 13:41:08;;;;;;;;;;;;;;;;;;5048357;28;20302;-83
2021/06/07 13:43:36;;;;;;;;;;;;;;;;;;5045020;28;19921;-83
2021/06/07 13:46:04;;;;;;;;;;;;;;;;;;5023831;28;19928;-82
2021/06/07 13:48:36;;;;;;;;;;;;;;;;;;5043800;28;19921;-84
2021/06/07 13:51:06;;;;;;;;;;;;;;;;;;5035025;28;19928;-83
2021/06/07 13:53:35;;;;;;;;;;;;;;;;;;5062047;28;19920;-83
2021/06/07 13:56:04;;;;;;;;;;;;;;;;;;5033445;28;20155;-83
2021/06/07 13:58:42;;;;;;;;;;;;;;;;;;5041744;28;19925;-80
2021/06/07 14:01:11;;;;;;;;;;;;;;;;;;5067823;28;19928;-80
2021/06/07 14:03:40;;;;;;;;;;;;;;;;;;5026454;28;20140;-81
2021/06/07 14:06:10;;;;;;;;;;;;;;;;;;5024274;28;20422;-82
2021/06/07 14:08:38;;;;;;;;;;;;;;;;;;5038383;28;19943;-82
2021/06/07 14:11:07;;;;;;;;;;;;;;;;;;5053195;28;19928;-81
2021/06/07 14:13:35;;;;;;;;;;;;;;;;;;5074564;28;19921;-81
2021/06/07 14:16:03;;;;;;;;;;;;;;;;;;5049861;28;20410;-82
2021/06/07 14:18:31;;;;;;;;;;;;;;;;;;5032769;28;20286;-81
2021/06/07 14:21:00;;;;;;;;;;;;;;;;;;5050178;28;19928;-81
2021/06/07 14:26:16;;;;;;;;;;;;;;;;;;5051904;28;19921;-81
2021/06/07 14:28:44;;;;;;;;;;;;;;;;;;5024114;28;20004;-80
2021/06/07 14:31:12;;;;;;;;;;;;;;;;;;5051799;28;20497;-80
2021/06/07 14:33:40;;;;;;;;;;;;;;;;;;5047942;28;19920;-81
2021/06/07 14:36:10;;;;;;;;;;;;;;;;;;5034285;28;19921;-81
2021/06/07 14:38:39;;;;;;;;;;;;;;;;;;5031458;28;20286;-80
2021/06/07 14:41:07;;;;;;;;;;;;;;;;;;5033663;28;20295;-81
2021/06/07 14:43:36;;;;;;;;;;;;;;;;;;5037926;28;19924;-82
2021/06/07 14:46:04;;;;;;;;;;;;;;;;;;5039834;28;19924;-83
2021/06/07 14:48:32;;;;;;;;;;;;;;;;;;5038005;28;19920;-83
2021/06/07 14:51:00;;;;;;;;;;;;;;;;;;5022674;28;19929;-83
2021/06/07 14:53:29;;;;;;;;;;;;;;;;;;5027628;28;20380;-83
2021/06/07 14:55:58;;;;;;;;;;;;;;;;;;5018756;28;19933;-83
2021/06/07 14:58:26;;;;;;;;;;;;;;;;;;5033301;28;19921;-83
2021/06/07 15:00:54;;;;;;;;;;;;;;;;;;5036211;28;19929;-83
2021/06/07 15:03:22;;;;;;;;;;;;;;;;;;5039346;28;19921;-83
2021/06/07 15:05:50;;;;;;;;;;;;;;;;;;5060753;28;19921;-82
2021/06/07 15:08:18;;;;;;;;;;;;;;;;;;5041558;28;20386;-83
2021/06/07 15:10:46;;;;;;;;;;;;;;;;;;5032573;28;19925;-83
2021/06/07 15:13:15;;;;;;;;;;;;;;;;;;5019378;28;19920;-83
2021/06/07 15:15:45;;;;;;;;;;;;;;;;;;5032180;28;20405;-83
2021/06/07 15:18:13;;;;;;;;;;;;;;;;;;5038514;28;19928;-82
2021/06/07 15:20:41;;;;;;;;;;;;;;;;;;5029293;28;20287;-83
2021/06/07 15:23:09;;;;;;;;;;;;;;;;;;5068546;28;19921;-83
2021/06/07 15:25:37;;;;;;;;;;;;;;;;;;5055634;28;19927;-83
2021/06/07 15:28:05;;;;;;;;;;;;;;;;;;5060288;28;19924;-83
2021/06/07 15:30:34;;;;;;;;;;;;;;;;;;5063452;28;19935;-83
2021/06/07 15:33:02;;;;;;;;;;;;;;;;;;5050350;28;19927;-84
2021/06/07 15:35:35;;;;;;;;;;;;;;;;;;5020883;28;19936;-83
2021/06/07 15:38:03;;;;;;;;;;;;;;;;;;5039481;28;19943;-83
2021/06/07 15:40:31;;;;;;;;;;;;;;;;;;5055300;28;20292;-83
2021/06/07 15:42:59;;;;;;;;;;;;;;;;;;5056152;28;20393;-81
2021/06/07 15:45:27;;;;;;;;;;;;;;;;;;5076566;28;19924;-83
2021/06/07 15:47:57;;;;;;;;;;;;;;;;;;5077550;28;19925;-82
2021/06/07 15:50:25;;;;;;;;;;;;;;;;;;5044417;28;19931;-82
2021/06/07 15:52:53;;;;;;;;;;;;;;;;;;5044450;28;20286;-83
2021/06/07 15:55:21;;;;;;;;;;;;;;;;;;5073595;28;22513;-82
2021/06/07 15:57:49;;;;;;;;;;;;;;;;;;5025848;28;20308;-82
2021/06/07 16:00:17;;;;;;;;;;;;;;;;;;5039917;28;19977;-81
2021/06/07 16:02:45;;;;;;;;;;;;;;;;;;5071811;28;20052;-83
2021/06/07 16:05:15;;;;;;;;;;;;;;;;;;5062671;28;19921;-83
2021/06/07 16:07:43;;;;;;;;;;;;;;;;;;5076248;28;20131;-81
2021/06/07 16:10:11;;;;;;;;;;;;;;;;;;5039175;28;19928;-80
2021/06/07 16:12:39;;;;;;;;;;;;;;;;;;5038944;28;19921;-80
2021/06/07 16:15:07;;;;;;;;;;;;;;;;;;5023029;28;19925;-82
2021/06/07 16:17:43;;;;;;;;;;;;;;;;;;5048015;28;20392;-86
2021/06/07 16:22:55;;;;;;;;;;;;;;;;;;5037317;28;19931;-84
2021/06/07 16:25:23;;;;;;;;;;;;;;;;;;5035906;28;20378;-84
2021/06/07 16:27:51;;;;;;;;;;;;;;;;;;5030040;28;20373;-82
2021/06/07 16:30:19;;;;;;;;;;;;;;;;;;5041355;28;19920;-83
2021/06/07 16:32:47;;;;;;;;;;;;;;;;;;5028090;28;19927;-84
2021/06/07 16:35:15;;;;;;;;;;;;;;;;;;5042568;28;19936;-81
2021/06/07 16:37:43;;;;;;;;;;;;;;;;;;5029022;28;20386;-83
2021/06/07 16:40:12;;;;;;;;;;;;;;;;;;5047352;28;19921;-84
2021/06/07 16:42:40;;;;;;;;;;;;;;;;;;5028717;28;19951;-82
2021/06/07 16:45:09;;;;;;;;;;;;;;;;;;5026940;28;19936;-82
2021/06/07 16:47:38;;;;;;;;;;;;;;;;;;5057881;28;20306;-83
2021/06/07 16:50:07;;;;;;;;;;;;;;;;;;5073711;28;19929;-86
2021/06/07 16:52:37;;;;;;;;;;;;;;;;;;5064653;28;20155;-82
2021/06/07 16:55:07;;;;;;;;;;;;;;;;;;5062736;28;19929;-84
2021/06/07 16:57:36;;;;;;;;;;;;;;;;;;5033265;28;20268;-81
2021/06/07 17:00:04;;;;;;;;;;;;;;;;;;5055285;28;19921;-82
2021/06/07 17:02:32;;;;;;;;;;;;;;;;;;5052669;28;19921;-84
2021/06/07 17:05:01;;;;;;;;;;;;;;;;;;5023676;28;19927;-82
2021/06/07 17:07:28;;;;;;;;;;;;;;;;;;5060458;28;20595;-82
2021/06/07 17:09:59;;;;;;;;;;;;;;;;;;5028348;28;19943;-81
2021/06/07 17:12:30;;;;;;;;;;;;;;;;;;5025053;28;19921;-83